Weather at Morven Airport

Public forecast

Using degrees Celsius for public forecast. Weather courtesy of forecast.io.

Closest aviation weather report (METAR) to Morven Airport

Closest report is Charleville Airport, 45.1 nm (83.5 km) W. Retrieved 2021/06/21 10:00 UTC (35 minutes ago):

YBCV 211000Z AUTO 15005KT 9999 // NCD 13/04 Q1022

Closest aviation forecast (TAF) to Morven Airport

Closest forecast is Brisbane West Wellcamp Airport, 260.6 nm (482.5 km) ESE. Retrieved 2021/06/21 06:00 UTC (5 hours ago):

TAF YBWW 210528Z 2106/2200 18008KT 9999 FEW045 FM210900 16005KT 9999 FEW010